sensor_id;sensor_type;location;lat;lon;timestamp;pressure;altitude;pressure_sealevel;temperature;humidity
12178;BME280;6152;48.728;9.256;2023-08-01T00:02:11;96133.19;;;17.35;100.00
12178;BME280;6152;48.728;9.256;2023-08-01T00:04:38;96133.19;;;17.35;100.00
12178;BME280;6152;48.728;9.256;2023-08-01T00:07:04;96127.94;;;17.35;100.00
12178;BME280;6152;48.728;9.256;2023-08-01T00:09:30;96127.94;;;17.35;100.00
12178;BME280;6152;48.728;9.256;2023-08-01T00:11:56;96114.13;;;17.33;100.00
12178;BME280;6152;48.728;9.256;2023-08-01T00:14:22;96114.28;;;17.32;100.00
12178;BME280;6152;48.728;9.256;2023-08-01T00:16:50;96111.47;;;17.25;100.00
12178;BME280;6152;48.728;9.256;2023-08-01T00:19:17;96106.47;;;17.14;100.00
12178;BME280;6152;48.728;9.256;2023-08-01T00:21:43;96092.31;;;17.07;100.00
12178;BME280;6152;48.728;9.256;2023-08-01T00:24:09;96093.91;;;17.00;100.00
12178;BME280;6152;48.728;9.256;2023-08-01T00:26:35;96087.69;;;17.01;100.00
12178;BME280;6152;48.728;9.256;2023-08-01T00:29:01;96092.94;;;17.01;100.00
12178;BME280;6152;48.728;9.256;2023-08-01T00:31:28;96094.59;;;17.02;100.00
12178;BME280;6152;48.728;9.256;2023-08-01T00:33:54;96088.72;;;17.08;100.00
12178;BME280;6152;48.728;9.256;2023-08-01T00:36:20;96082.47;;;17.09;100.00
12178;BME280;6152;48.728;9.256;2023-08-01T00:38:46;96077.56;;;17.14;100.00
12178;BME280;6152;48.728;9.256;2023-08-01T00:41:13;96070.84;;;17.20;100.00
12178;BME280;6152;48.728;9.256;2023-08-01T00:43:39;96067.72;;;17.24;100.00
12178;BME280;6152;48.728;9.256;2023-08-01T00:46:06;96074.00;;;17.23;100.00
12178;BME280;6152;48.728;9.256;2023-08-01T00:48:32;96072.69;;;17.27;100.00
12178;BME280;6152;48.728;9.256;2023-08-01T00:51:01;96061.03;;;17.30;100.00
12178;BME280;6152;48.728;9.256;2023-08-01T00:53:29;96057.56;;;17.29;100.00
12178;BME280;6152;48.728;9.256;2023-08-01T00:55:56;96050.50;;;17.30;100.00
12178;BME280;6152;48.728;9.256;2023-08-01T00:58:22;96046.06;;;17.30;100.00
12178;BME280;6152;48.728;9.256;2023-08-01T01:00:49;96037.03;;;17.33;100.00
12178;BME280;6152;48.728;9.256;2023-08-01T01:03:15;96038.84;;;17.32;100.00
12178;BME280;6152;48.728;9.256;2023-08-01T01:05:53;96037.88;;;17.33;100.00
12178;BME280;6152;48.728;9.256;2023-08-01T01:08:22;96028.00;;;17.35;100.00
12178;BME280;6152;48.728;9.256;2023-08-01T01:10:48;96023.72;;;17.34;100.00
12178;BME280;6152;48.728;9.256;2023-08-01T01:13:14;96026.34;;;17.34;100.00
12178;BME280;6152;48.728;9.256;2023-08-01T01:15:40;96029.97;;;17.33;100.00
12178;BME280;6152;48.728;9.256;2023-08-01T01:18:06;96029.28;;;17.31;100.00
12178;BME280;6152;48.728;9.256;2023-08-01T01:20:36;96022.41;;;17.30;100.00
12178;BME280;6152;48.728;9.256;2023-08-01T01:23:04;96025.19;;;17.29;100.00
12178;BME280;6152;48.728;9.256;2023-08-01T01:25:32;96020.25;;;17.26;100.00
12178;BME280;6152;48.728;9.256;2023-08-01T01:27:59;95999.06;;;17.27;100.00
12178;BME280;6152;48.728;9.256;2023-08-01T01:30:27;96004.00;;;17.30;100.00
12178;BME280;6152;48.728;9.256;2023-08-01T01:32:54;96007.25;;;17.16;100.00
12178;BME280;6152;48.728;9.256;2023-08-01T01:35:21;96008.19;;;17.07;100.00
12178;BME280;6152;48.728;9.256;2023-08-01T01:37:47;95973.00;;;16.92;100.00
12178;BME280;6152;48.728;9.256;2023-08-01T01:40:13;95969.66;;;16.74;100.00
12178;BME280;6152;48.728;9.256;2023-08-01T01:42:39;95975.50;;;16.59;100.00
12178;BME280;6152;48.728;9.256;2023-08-01T01:45:05;95985.94;;;16.51;100.00
12178;BME280;6152;48.728;9.256;2023-08-01T01:47:32;95973.59;;;16.44;100.00
12178;BME280;6152;48.728;9.256;2023-08-01T01:49:58;95953.19;;;16.38;100.00
12178;BME280;6152;48.728;9.256;2023-08-01T01:52:24;95957.91;;;16.26;100.00
12178;BME280;6152;48.728;9.256;2023-08-01T01:54:50;95944.09;;;16.24;100.00
12178;BME280;6152;48.728;9.256;2023-08-01T01:57:16;95944.91;;;16.16;100.00
12178;BME280;6152;48.728;9.256;2023-08-01T01:59:42;95937.19;;;16.15;100.00
12178;BME280;6152;48.728;9.256;2023-08-01T02:02:08;95932.56;;;16.09;100.00
12178;BME280;6152;48.728;9.256;2023-08-01T02:04:34;95926.78;;;16.05;100.00
12178;BME280;6152;48.728;9.256;2023-08-01T02:07:00;95924.31;;;16.04;100.00
12178;BME280;6152;48.728;9.256;2023-08-01T02:09:27;95930.03;;;15.99;100.00
12178;BME280;6152;48.728;9.256;2023-08-01T02:11:53;95928.53;;;15.97;100.00
12178;BME280;6152;48.728;9.256;2023-08-01T02:14:19;95931.00;;;15.98;100.00
12178;BME280;6152;48.728;9.256;2023-08-01T02:16:45;95927.88;;;15.95;100.00
12178;BME280;6152;48.728;9.256;2023-08-01T02:19:11;95928.53;;;15.97;100.00
12178;BME280;6152;48.728;9.256;2023-08-01T02:21:37;95920.84;;;15.95;100.00
12178;BME280;6152;48.728;9.256;2023-08-01T02:24:03;95907.53;;;15.97;100.00
12178;BME280;6152;48.728;9.256;2023-08-01T02:26:30;95916.41;;;15.96;100.00
12178;BME280;6152;48.728;9.256;2023-08-01T02:28:56;95920.00;;;15.95;100.00
12178;BME280;6152;48.728;9.256;2023-08-01T02:31:22;95924.56;;;15.93;100.00
12178;BME280;6152;48.728;9.256;2023-08-01T02:33:48;95920.16;;;15.93;100.00
12178;BME280;6152;48.728;9.256;2023-08-01T02:36:14;95942.13;;;15.92;100.00
12178;BME280;6152;48.728;9.256;2023-08-01T02:38:41;95924.22;;;15.88;100.00
12178;BME280;6152;48.728;9.256;2023-08-01T02:41:07;95933.75;;;15.89;100.00
12178;BME280;6152;48.728;9.256;2023-08-01T02:43:33;95931.13;;;15.89;100.00
12178;BME280;6152;48.728;9.256;2023-08-01T02:46:02;95929.47;;;15.88;100.00
12178;BME280;6152;48.728;9.256;2023-08-01T02:48:28;95928.19;;;15.92;100.00
12178;BME280;6152;48.728;9.256;2023-08-01T02:50:54;95928.34;;;15.90;100.00
12178;BME280;6152;48.728;9.256;2023-08-01T02:53:20;95928.84;;;15.94;100.00
12178;BME280;6152;48.728;9.256;2023-08-01T02:55:46;95931.31;;;15.95;100.00
12178;BME280;6152;48.728;9.256;2023-08-01T02:58:12;95917.13;;;16.06;100.00
12178;BME280;6152;48.728;9.256;2023-08-01T03:00:39;95917.13;;;16.06;100.00
12178;BME280;6152;48.728;9.256;2023-08-01T03:03:06;95914.31;;;16.07;100.00
12178;BME280;6152;48.728;9.256;2023-08-01T03:05:35;95915.47;;;16.05;100.00
12178;BME280;6152;48.728;9.256;2023-08-01T03:08:01;95915.16;;;16.08;100.00
12178;BME280;6152;48.728;9.256;2023-08-01T03:10:27;95920.41;;;16.08;100.00
12178;BME280;6152;48.728;9.256;2023-08-01T03:12:53;95909.59;;;16.11;100.00
12178;BME280;6152;48.728;9.256;2023-08-01T03:15:19;95912.22;;;16.11;100.00
12178;BME280;6152;48.728;9.256;2023-08-01T03:17:45;95905.34;;;16.18;100.00
12178;BME280;6152;48.728;9.256;2023-08-01T03:20:12;95901.44;;;16.22;100.00
12178;BME280;6152;48.728;9.256;2023-08-01T03:22:39;95901.63;;;16.29;100.00
12178;BME280;6152;48.728;9.256;2023-08-01T03:25:07;95896.75;;;16.42;100.00
12178;BME280;6152;48.728;9.256;2023-08-01T03:27:34;95897.28;;;16.45;100.00
12178;BME280;6152;48.728;9.256;2023-08-01T03:30:01;95895.66;;;16.44;100.00
12178;BME280;6152;48.728;9.256;2023-08-01T03:32:27;95887.28;;;16.49;100.00
12178;BME280;6152;48.728;9.256;2023-08-01T03:34:53;95894.25;;;16.58;100.00
12178;BME280;6152;48.728;9.256;2023-08-01T03:37:19;95896.69;;;16.59;100.00
12178;BME280;6152;48.728;9.256;2023-08-01T03:39:46;95891.47;;;16.67;100.00
12178;BME280;6152;48.728;9.256;2023-08-01T03:42:12;95902.16;;;16.74;100.00
12178;BME280;6152;48.728;9.256;2023-08-01T03:44:38;95891.69;;;16.90;100.00
12178;BME280;6152;48.728;9.256;2023-08-01T03:47:04;95898.25;;;16.94;100.00
12178;BME280;6152;48.728;9.256;2023-08-01T03:49:30;95897.09;;;16.97;100.00
12178;BME280;6152;48.728;9.256;2023-08-01T03:51:56;95900.59;;;17.05;100.00
12178;BME280;6152;48.728;9.256;2023-08-01T03:54:23;95901.75;;;17.19;100.00
12178;BME280;6152;48.728;9.256;2023-08-01T03:56:49;95906.69;;;17.30;100.00
12178;BME280;6152;48.728;9.256;2023-08-01T03:59:16;95910.00;;;17.40;100.00
12178;BME280;6152;48.728;9.256;2023-08-01T04:01:42;95912.09;;;17.45;100.00
12178;BME280;6152;48.728;9.256;2023-08-01T04:04:09;95910.31;;;17.53;100.00
12178;BME280;6152;48.728;9.256;2023-08-01T04:06:35;95906.69;;;17.54;100.00
12178;BME280;6152;48.728;9.256;2023-08-01T04:09:02;95913.13;;;17.60;100.00
12178;BME280;6152;48.728;9.256;2023-08-01T04:11:28;95906.72;;;17.62;100.00
12178;BME280;6152;48.728;9.256;2023-08-01T04:13:56;95903.44;;;17.69;100.00
12178;BME280;6152;48.728;9.256;2023-08-01T04:16:22;95896.69;;;17.74;100.00
12178;BME280;6152;48.728;9.256;2023-08-01T04:18:48;95866.91;;;17.74;100.00
12178;BME280;6152;48.728;9.256;2023-08-01T04:21:15;95830.69;;;17.76;100.00
12178;BME280;6152;48.728;9.256;2023-08-01T04:23:41;95835.66;;;17.79;100.00
12178;BME280;6152;48.728;9.256;2023-08-01T04:26:08;95821.81;;;17.77;100.00
12178;BME280;6152;48.728;9.256;2023-08-01T04:28:34;95818.22;;;17.78;100.00
12178;BME280;6152;48.728;9.256;2023-08-01T04:31:01;95800.13;;;17.75;100.00
12178;BME280;6152;48.728;9.256;2023-08-01T04:33:27;95795.84;;;17.74;100.00
12178;BME280;6152;48.728;9.256;2023-08-01T04:35:53;95770.38;;;17.74;100.00
12178;BME280;6152;48.728;9.256;2023-08-01T04:38:19;95761.97;;;17.79;100.00
12178;BME280;6152;48.728;9.256;2023-08-01T04:40:45;95717.53;;;17.84;100.00
12178;BME280;6152;48.728;9.256;2023-08-01T04:43:12;95709.13;;;17.88;100.00
12178;BME280;6152;48.728;9.256;2023-08-01T04:45:38;95713.22;;;17.91;100.00
12178;BME280;6152;48.728;9.256;2023-08-01T04:48:04;95667.59;;;17.98;100.00
12178;BME280;6152;48.728;9.256;2023-08-01T04:50:30;95622.34;;;18.03;100.00
12178;BME280;6152;48.728;9.256;2023-08-01T04:52:56;95649.94;;;18.07;100.00
12178;BME280;6152;48.728;9.256;2023-08-01T04:55:23;95714.59;;;18.09;100.00
12178;BME280;6152;48.728;9.256;2023-08-01T04:57:49;95713.78;;;18.09;100.00
12178;BME280;6152;48.728;9.256;2023-08-01T05:00:15;95723.31;;;18.10;100.00
12178;BME280;6152;48.728;9.256;2023-08-01T05:02:41;95713.44;;;18.12;100.00
12178;BME280;6152;48.728;9.256;2023-08-01T05:05:07;95727.41;;;18.12;100.00
12178;BME280;6152;48.728;9.256;2023-08-01T05:07:34;95729.50;;;18.17;100.00
12178;BME280;6152;48.728;9.256;2023-08-01T05:10:00;95738.44;;;18.16;100.00
12178;BME280;6152;48.728;9.256;2023-08-01T05:12:26;95742.03;;;18.15;100.00
12178;BME280;6152;48.728;9.256;2023-08-01T05:14:52;95748.47;;;18.12;100.00
12178;BME280;6152;48.728;9.256;2023-08-01T05:17:18;95763.44;;;18.20;100.00
12178;BME280;6152;48.728;9.256;2023-08-01T05:19:44;95771.00;;;18.15;100.00
12178;BME280;6152;48.728;9.256;2023-08-01T05:22:10;95785.34;;;18.12;100.00
12178;BME280;6152;48.728;9.256;2023-08-01T05:24:36;95758.19;;;18.12;100.00
12178;BME280;6152;48.728;9.256;2023-08-01T05:27:02;95764.75;;;18.16;100.00
12178;BME280;6152;48.728;9.256;2023-08-01T05:29:29;95764.41;;;18.19;100.00
12178;BME280;6152;48.728;9.256;2023-08-01T05:31:55;95772.47;;;18.17;100.00
12178;BME280;6152;48.728;9.256;2023-08-01T05:34:21;95789.56;;;18.22;100.00
12178;BME280;6152;48.728;9.256;2023-08-01T05:36:47;95810.84;;;18.20;100.00
12178;BME280;6152;48.728;9.256;2023-08-01T05:39:13;95818.72;;;18.20;100.00
12178;BME280;6152;48.728;9.256;2023-08-01T05:41:39;95812.78;;;18.26;100.00
12178;BME280;6152;48.728;9.256;2023-08-01T05:44:06;95812.28;;;18.23;100.00
12178;BME280;6152;48.728;9.256;2023-08-01T05:46:32;95802.75;;;18.22;100.00
12178;BME280;6152;48.728;9.256;2023-08-01T05:48:58;95783.47;;;18.21;100.00
12178;BME280;6152;48.728;9.256;2023-08-01T05:51:24;95783.13;;;18.24;100.00
12178;BME280;6152;48.728;9.256;2023-08-01T05:53:51;95794.00;;;18.29;100.00
12178;BME280;6152;48.728;9.256;2023-08-01T05:56:17;95802.19;;;18.34;100.00
12178;BME280;6152;48.728;9.256;2023-08-01T05:58:43;95802.19;;;18.34;100.00
12178;BME280;6152;48.728;9.256;2023-08-01T06:01:11;95797.56;;;18.36;100.00
12178;BME280;6152;48.728;9.256;2023-08-01T06:03:38;95802.84;;;18.36;100.00
12178;BME280;6152;48.728;9.256;2023-08-01T06:06:04;95806.59;;;18.42;100.00
12178;BME280;6152;48.728;9.256;2023-08-01T06:08:30;95813.00;;;18.47;100.00
12178;BME280;6152;48.728;9.256;2023-08-01T06:10:57;95820.91;;;18.47;100.00
12178;BME280;6152;48.728;9.256;2023-08-01T06:13:23;95811.16;;;18.56;100.00
12178;BME280;6152;48.728;9.256;2023-08-01T06:15:49;95812.97;;;18.55;100.00
12178;BME280;6152;48.728;9.256;2023-08-01T06:18:15;95816.25;;;18.57;100.00
12178;BME280;6152;48.728;9.256;2023-08-01T06:20:41;95813.44;;;18.59;100.00
12178;BME280;6152;48.728;9.256;2023-08-01T06:23:07;95818.56;;;18.52;100.00
12178;BME280;6152;48.728;9.256;2023-08-01T06:25:34;95817.25;;;18.56;100.00
12178;BME280;6152;48.728;9.256;2023-08-01T06:28:00;95810.03;;;18.50;100.00
12178;BME280;6152;48.728;9.256;2023-08-01T06:30:26;95822.59;;;18.32;100.00
12178;BME280;6152;48.728;9.256;2023-08-01T06:32:52;95808.47;;;18.25;100.00
12178;BME280;6152;48.728;9.256;2023-08-01T06:35:18;95818.13;;;18.10;100.00
12178;BME280;6152;48.728;9.256;2023-08-01T06:37:45;95837.25;;;17.96;100.00
12178;BME280;6152;48.728;9.256;2023-08-01T06:40:12;95830.69;;;17.92;100.00
12178;BME280;6152;48.728;9.256;2023-08-01T06:42:38;95822.44;;;17.87;100.00
12178;BME280;6152;48.728;9.256;2023-08-01T06:45:06;95834.28;;;17.91;100.00
12178;BME280;6152;48.728;9.256;2023-08-01T06:47:32;95834.78;;;17.94;100.00
12178;BME280;6152;48.728;9.256;2023-08-01T06:49:58;95824.09;;;17.96;100.00
12178;BME280;6152;48.728;9.256;2023-08-01T06:52:24;95833.25;;;18.00;100.00
12178;BME280;6152;48.728;9.256;2023-08-01T06:54:50;95851.88;;;17.98;100.00
12178;BME280;6152;48.728;9.256;2023-08-01T06:57:16;95852.84;;;17.97;100.00
12178;BME280;6152;48.728;9.256;2023-08-01T06:59:42;95848.00;;;17.78;100.00
12178;BME280;6152;48.728;9.256;2023-08-01T07:02:08;95834.66;;;17.55;100.00
12178;BME280;6152;48.728;9.256;2023-08-01T07:04:34;95822.38;;;17.32;100.00
12178;BME280;6152;48.728;9.256;2023-08-01T07:07:01;95819.56;;;17.17;100.00
12178;BME280;6152;48.728;9.256;2023-08-01T07:09:27;95824.19;;;17.07;100.00
12178;BME280;6152;48.728;9.256;2023-08-01T07:11:53;95829.44;;;17.07;100.00
12178;BME280;6152;48.728;9.256;2023-08-01T07:14:19;95829.13;;;17.02;100.00
12178;BME280;6152;48.728;9.256;2023-08-01T07:16:45;95826.16;;;17.05;100.00
12178;BME280;6152;48.728;9.256;2023-08-01T07:19:11;95825.81;;;17.00;100.00
12178;BME280;6152;48.728;9.256;2023-08-01T07:21:37;95831.25;;;16.98;100.00
12178;BME280;6152;48.728;9.256;2023-08-01T07:24:04;95819.91;;;16.98;100.00
12178;BME280;6152;48.728;9.256;2023-08-01T07:26:30;95820.75;;;16.98;100.00
12178;BME280;6152;48.728;9.256;2023-08-01T07:28:56;95816.63;;;16.88;100.00
12178;BME280;6152;48.728;9.256;2023-08-01T07:31:23;95829.88;;;16.62;100.00
12178;BME280;6152;48.728;9.256;2023-08-01T07:33:49;95843.13;;;16.44;100.00
12178;BME280;6152;48.728;9.256;2023-08-01T07:36:15;95847.97;;;16.31;100.00
12178;BME280;6152;48.728;9.256;2023-08-01T07:38:41;95850.91;;;16.20;100.00
12178;BME280;6152;48.728;9.256;2023-08-01T07:41:08;95865.34;;;16.16;100.00
12178;BME280;6152;48.728;9.256;2023-08-01T07:43:34;95859.91;;;16.17;100.00
12178;BME280;6152;48.728;9.256;2023-08-01T07:46:00;95865.53;;;16.23;100.00
12178;BME280;6152;48.728;9.256;2023-08-01T07:48:26;95865.97;;;16.10;100.00
12178;BME280;6152;48.728;9.256;2023-08-01T07:50:52;95873.16;;;16.08;100.00
12178;BME280;6152;48.728;9.256;2023-08-01T07:53:19;95877.59;;;16.07;100.00
12178;BME280;6152;48.728;9.256;2023-08-01T07:55:45;95886.22;;;16.00;100.00
12178;BME280;6152;48.728;9.256;2023-08-01T07:58:11;95881.94;;;15.91;100.00
12178;BME280;6152;48.728;9.256;2023-08-01T08:00:37;95877.63;;;15.82;100.00
12178;BME280;6152;48.728;9.256;2023-08-01T08:03:04;95867.53;;;15.69;100.00
12178;BME280;6152;48.728;9.256;2023-08-01T08:05:31;95862.09;;;15.62;100.00
12178;BME280;6152;48.728;9.256;2023-08-01T08:07:58;95870.94;;;15.61;100.00
12178;BME280;6152;48.728;9.256;2023-08-01T08:10:24;95872.88;;;15.59;100.00
12178;BME280;6152;48.728;9.256;2023-08-01T08:12:50;95854.97;;;15.55;100.00
12178;BME280;6152;48.728;9.256;2023-08-01T08:15:17;95862.03;;;15.54;100.00
12178;BME280;6152;48.728;9.256;2023-08-01T08:17:45;95851.88;;;15.51;100.00
12178;BME280;6152;48.728;9.256;2023-08-01T08:20:11;95855.81;;;15.55;100.00
12178;BME280;6152;48.728;9.256;2023-08-01T08:22:37;95840.06;;;15.55;100.00
12178;BME280;6152;48.728;9.256;2023-08-01T08:25:03;95850.34;;;15.49;100.00
12178;BME280;6152;48.728;9.256;2023-08-01T08:27:30;95837.38;;;15.47;100.00
12178;BME280;6152;48.728;9.256;2023-08-01T08:29:56;95837.09;;;15.50;100.00
12178;BME280;6152;48.728;9.256;2023-08-01T08:32:22;95842.88;;;15.54;100.00
12178;BME280;6152;48.728;9.256;2023-08-01T08:34:48;95840.97;;;15.46;100.00
12178;BME280;6152;48.728;9.256;2023-08-01T08:37:14;95840.69;;;15.49;100.00
12178;BME280;6152;48.728;9.256;2023-08-01T08:39:40;95837.09;;;15.50;100.00
12178;BME280;6152;48.728;9.256;2023-08-01T08:42:06;95844.50;;;15.55;100.00
12178;BME280;6152;48.728;9.256;2023-08-01T08:44:38;95847.34;;;15.61;100.00
12178;BME280;6152;48.728;9.256;2023-08-01T08:47:08;95852.31;;;15.73;100.00
12178;BME280;6152;48.728;9.256;2023-08-01T08:49:36;95849.63;;;15.90;100.00
12178;BME280;6152;48.728;9.256;2023-08-01T08:52:03;95857.09;;;16.03;100.00
12178;BME280;6152;48.728;9.256;2023-08-01T08:54:31;95871.22;;;16.10;100.00
12178;BME280;6152;48.728;9.256;2023-08-01T08:56:57;95868.75;;;16.08;100.00
12178;BME280;6152;48.728;9.256;2023-08-01T08:59:25;95869.06;;;16.13;100.00
12178;BME280;6152;48.728;9.256;2023-08-01T09:01:52;95858.44;;;16.15;100.00
12178;BME280;6152;48.728;9.256;2023-08-01T09:04:18;95861.09;;;16.23;100.00
12178;BME280;6152;48.728;9.256;2023-08-01T09:06:49;95855.53;;;16.26;100.00
12178;BME280;6152;48.728;9.256;2023-08-01T09:09:15;95857.19;;;16.35;100.00
12178;BME280;6152;48.728;9.256;2023-08-01T09:11:46;95848.53;;;16.43;100.00
12178;BME280;6152;48.728;9.256;2023-08-01T09:14:12;95862.63;;;16.42;100.00
12178;BME280;6152;48.728;9.256;2023-08-01T09:16:40;95862.47;;;16.43;100.00
12178;BME280;6152;48.728;9.256;2023-08-01T09:19:07;95862.13;;;16.38;100.00
12178;BME280;6152;48.728;9.256;2023-08-01T09:21:35;95855.91;;;16.39;100.00
12178;BME280;6152;48.728;9.256;2023-08-01T09:24:18;95851.28;;;16.41;100.00
12178;BME280;6152;48.728;9.256;2023-08-01T09:26:46;95852.63;;;16.37;100.00
12178;BME280;6152;48.728;9.256;2023-08-01T09:29:12;95846.88;;;16.42;100.00
12178;BME280;6152;48.728;9.256;2023-08-01T09:31:40;95864.13;;;16.44;100.00
12178;BME280;6152;48.728;9.256;2023-08-01T09:34:20;95855.75;;;16.49;100.00
12178;BME280;6152;48.728;9.256;2023-08-01T09:36:47;95848.56;;;16.51;100.00
12178;BME280;6152;48.728;9.256;2023-08-01T09:39:18;95859.69;;;16.45;100.00
12178;BME280;6152;48.728;9.256;2023-08-01T09:41:46;95867.25;;;16.48;100.00
12178;BME280;6152;48.728;9.256;2023-08-01T09:44:15;95868.41;;;16.53;100.00
12178;BME280;6152;48.728;9.256;2023-08-01T09:46:41;95858.63;;;16.63;100.00
12178;BME280;6152;48.728;9.256;2023-08-01T09:49:12;95864.88;;;16.71;100.00
12178;BME280;6152;48.728;9.256;2023-08-01T09:51:48;95861.78;;;16.75;100.00
12178;BME280;6152;48.728;9.256;2023-08-01T09:54:16;95874.75;;;16.77;100.00
12178;BME280;6152;48.728;9.256;2023-08-01T09:56:45;95874.09;;;16.83;100.00
12178;BME280;6152;48.728;9.256;2023-08-01T09:59:11;95890.50;;;16.77;100.00
12178;BME280;6152;48.728;9.256;2023-08-01T10:01:39;95891.19;;;16.79;100.00
12178;BME280;6152;48.728;9.256;2023-08-01T10:04:07;95877.06;;;16.88;100.00
12178;BME280;6152;48.728;9.256;2023-08-01T10:06:38;95880.84;;;16.93;100.00
12178;BME280;6152;48.728;9.256;2023-08-01T10:09:10;95884.81;;;17.05;100.00
12178;BME280;6152;48.728;9.256;2023-08-01T10:11:39;95876.75;;;17.07;100.00
12178;BME280;6152;48.728;9.256;2023-08-01T10:14:06;95874.28;;;17.13;100.00
12178;BME280;6152;48.728;9.256;2023-08-01T10:16:33;95868.56;;;17.18;100.00
12178;BME280;6152;48.728;9.256;2023-08-01T10:19:00;95872.81;;;17.35;100.00
12178;BME280;6152;48.728;9.256;2023-08-01T10:21:27;95877.41;;;17.41;100.00
12178;BME280;6152;48.728;9.256;2023-08-01T10:23:54;95875.47;;;17.43;100.00
12178;BME280;6152;48.728;9.256;2023-08-01T10:26:20;95882.19;;;17.46;100.00
12178;BME280;6152;48.728;9.256;2023-08-01T10:28:51;95884.00;;;17.53;100.00
12178;BME280;6152;48.728;9.256;2023-08-01T10:31:19;95894.03;;;17.66;100.00
12178;BME280;6152;48.728;9.256;2023-08-01T10:33:48;95887.78;;;17.83;100.00
12178;BME280;6152;48.728;9.256;2023-08-01T10:38:51;95895.13;;;18.12;100.00
12178;BME280;6152;48.728;9.256;2023-08-01T10:41:29;95899.84;;;18.25;100.00
12178;BME280;6152;48.728;9.256;2023-08-01T10:44:28;95895.41;;;18.25;100.00
12178;BME280;6152;48.728;9.256;2023-08-01T10:47:00;95903.44;;;18.32;100.00
12178;BME280;6152;48.728;9.256;2023-08-01T10:49:36;95899.94;;;18.47;100.00
12178;BME280;6152;48.728;9.256;2023-08-01T10:52:04;95901.06;;;18.61;100.00
12178;BME280;6152;48.728;9.256;2023-08-01T10:54:41;95898.53;;;19.21;100.00
12178;BME280;6152;48.728;9.256;2023-08-01T10:57:07;95903.03;;;19.43;100.00
12178;BME280;6152;48.728;9.256;2023-08-01T10:59:34;95903.69;;;19.83;100.00
12178;BME280;6152;48.728;9.256;2023-08-01T11:02:01;95891.31;;;19.98;100.00
12178;BME280;6152;48.728;9.256;2023-08-01T11:04:27;95880.94;;;20.11;100.00
12178;BME280;6152;48.728;9.256;2023-08-01T11:06:54;95893.66;;;19.93;100.00
12178;BME280;6152;48.728;9.256;2023-08-01T11:09:26;95919.75;;;19.96;100.00
12178;BME280;6152;48.728;9.256;2023-08-01T11:11:57;95927.38;;;19.91;100.00
12178;BME280;6152;48.728;9.256;2023-08-01T11:14:26;95936.22;;;19.98;100.00
12178;BME280;6152;48.728;9.256;2023-08-01T11:16:55;95933.28;;;20.59;100.00
12178;BME280;6152;48.728;9.256;2023-08-01T11:19:26;95934.75;;;21.27;100.00
12178;BME280;6152;48.728;9.256;2023-08-01T11:21:53;95931.81;;;22.69;100.00
12178;BME280;6152;48.728;9.256;2023-08-01T11:24:22;95945.84;;;24.43;98.30
12178;BME280;6152;48.728;9.256;2023-08-01T11:26:50;95941.56;;;25.89;77.75
12178;BME280;6152;48.728;9.256;2023-08-01T11:29:17;95935.81;;;26.78;72.20
12178;BME280;6152;48.728;9.256;2023-08-01T11:31:54;95935.63;;;26.97;62.05
12178;BME280;6152;48.728;9.256;2023-08-01T11:34:20;95937.94;;;28.25;59.72
12178;BME280;6152;48.728;9.256;2023-08-01T11:36:47;95938.78;;;29.23;47.72
12178;BME280;6152;48.728;9.256;2023-08-01T11:39:15;95937.28;;;29.84;45.13
12178;BME280;6152;48.728;9.256;2023-08-01T11:41:42;95942.94;;;30.16;42.66
12178;BME280;6152;48.728;9.256;2023-08-01T11:44:09;95939.88;;;29.79;43.81
12178;BME280;6152;48.728;9.256;2023-08-01T11:46:38;95935.84;;;30.26;41.71
12178;BME280;6152;48.728;9.256;2023-08-01T11:49:07;95941.34;;;30.70;41.63
12178;BME280;6152;48.728;9.256;2023-08-01T11:51:43;95941.47;;;30.96;41.01
12178;BME280;6152;48.728;9.256;2023-08-01T11:54:10;95937.50;;;31.69;38.69
12178;BME280;6152;48.728;9.256;2023-08-01T11:56:38;95940.22;;;31.04;36.84
12178;BME280;6152;48.728;9.256;2023-08-01T11:59:17;95939.50;;;31.09;37.60
12178;BME280;6152;48.728;9.256;2023-08-01T12:01:45;95943.28;;;31.34;37.69
12178;BME280;6152;48.728;9.256;2023-08-01T12:04:12;95941.25;;;31.95;35.68
12178;BME280;6152;48.728;9.256;2023-08-01T12:06:38;95939.16;;;32.02;36.77
12178;BME280;6152;48.728;9.256;2023-08-01T12:09:12;95940.47;;;32.26;36.44
12178;BME280;6152;48.728;9.256;2023-08-01T12:11:40;95936.88;;;32.52;36.10
12178;BME280;6152;48.728;9.256;2023-08-01T12:14:14;95938.53;;;31.41;37.18
12178;BME280;6152;48.728;9.256;2023-08-01T12:16:42;95954.50;;;30.88;38.06
12178;BME280;6152;48.728;9.256;2023-08-01T12:19:17;95950.47;;;30.35;38.78
12178;BME280;6152;48.728;9.256;2023-08-01T12:21:44;95939.28;;;29.77;38.85
12178;BME280;6152;48.728;9.256;2023-08-01T12:24:10;95933.75;;;28.52;40.40
12178;BME280;6152;48.728;9.256;2023-08-01T12:26:37;95950.53;;;27.23;44.13
12178;BME280;6152;48.728;9.256;2023-08-01T12:29:03;95942.41;;;25.83;48.95
12178;BME280;6152;48.728;9.256;2023-08-01T12:31:29;95952.09;;;25.39;50.24
12178;BME280;6152;48.728;9.256;2023-08-01T12:33:55;95957.19;;;25.03;53.37
12178;BME280;6152;48.728;9.256;2023-08-01T12:36:22;95937.28;;;24.28;58.46
12178;BME280;6152;48.728;9.256;2023-08-01T12:38:48;95954.81;;;23.57;63.29
12178;BME280;6152;48.728;9.256;2023-08-01T12:41:14;95959.00;;;23.38;67.79
12178;BME280;6152;48.728;9.256;2023-08-01T12:43:40;95948.75;;;23.22;63.24
12178;BME280;6152;48.728;9.256;2023-08-01T12:46:07;95939.53;;;23.11;66.16
12178;BME280;6152;48.728;9.256;2023-08-01T12:48:33;95934.63;;;23.02;70.22
12178;BME280;6152;48.728;9.256;2023-08-01T12:50:59;95944.78;;;22.92;71.37
12178;BME280;6152;48.728;9.256;2023-08-01T12:53:25;95932.13;;;23.00;72.38
12178;BME280;6152;48.728;9.256;2023-08-01T12:55:52;95950.16;;;23.11;75.75
12178;BME280;6152;48.728;9.256;2023-08-01T12:58:18;95948.06;;;23.00;69.23
12178;BME280;6152;48.728;9.256;2023-08-01T13:00:45;95945.19;;;22.89;75.06
12178;BME280;6152;48.728;9.256;2023-08-01T13:03:11;95944.72;;;22.79;69.23
12178;BME280;6152;48.728;9.256;2023-08-01T13:05:40;95950.94;;;22.99;68.71